Grant, NE (69140)

6:09 PM MST on February 05, 2016 (GMT -0700)
Sisco Fertilizer | | Change Station
CLOSE
Current Station
Personal Weather Station
Location: Elsie, NE
Elevation: 3415 ft
Nearby Weather Stations

Elev 3415 ft 40.84 °N, 101.40 °W | Updated 9 seconds ago

Clear
Clear
27.5 °F
Feels Like 18 °F
N
10.0
Wind Variable Wind from NW
Gusts 12.0 mph

Today
High -- | Low -- °F
--% Chance of Precip.
Yesterday
High -- | Low -- °F
Precip. -- in
Pressure 30.25 in
Visibility 10.0 miles
Clouds Clear
Windchill 18 °F
Dew Point 22 °F
Humidity 79%
Rainfall 0.00 in
Snow Depth Not available.
6:53 AM 5:08 PM
Waning Crescent, 8% visible
METAR KOGA 060055Z AUTO 31008KT 10SM CLR M03/M07 A3025 RMK AO2 T10261070
Pressure 30.25 in
Visibility 10.0 miles
Clouds Clear
Windchill 18 °F
Dew Point 22 °F
Humidity 79%
Rainfall 0.00 in
Snow Depth Not available.
6:53 AM 5:08 PM
Waning Crescent, 8% visible
METAR KOGA 060055Z AUTO 31008KT 10SM CLR M03/M07 A3025 RMK AO2 T10261070

10-Day Weather Forecast

Almanac

Astronomy

Feb. 05, 2016 Rise Set
Actual Time
Civil Twilight
Nautical Twilight
Astronomical Twilight
Moon
Length of Visible Light
Length of Day
Tomorrow will be .
, % of the Moon is Illuminated

Today's Extremes

State Highs State Lows

Community

WunderPhotos

Upload Photos

1,890,902 photos uploaded!

WunderBlog® & News

Nearby

Air Quality

  Air Quality AQ Index Pollutant
Not available.

Snow Depth

Station Depth Elevation

Earthquake Activity

City Distance Mag. Time & Date
Minimum magnitude displayed is 2.5.

Coastal Water Temperatures

Place Temperature

Stations

Nearby Weather Stations

Station Location Temp. Windchill Dew Point Humidity Wind Precip. Elev Updated Type
                   

Watches & Warnings

There are currently no watches in effect.